createdAt,value
2018-10-19T00:00:02.854Z,24.00
2018-10-19T00:02:30.786Z,24.03
2018-10-19T00:04:58.604Z,24.05
2018-10-19T00:07:26.498Z,24.02
2018-10-19T00:09:54.273Z,24.00
2018-10-19T00:12:21.962Z,24.02
2018-10-19T00:14:50.134Z,24.04
2018-10-19T00:17:17.779Z,24.08
2018-10-19T00:19:45.741Z,24.11
2018-10-19T00:22:13.630Z,24.05
2018-10-19T00:24:41.534Z,24.03
2018-10-19T00:28:44.697Z,24.04
2018-10-19T00:31:12.574Z,24.11
2018-10-19T00:33:40.418Z,24.04
2018-10-19T00:36:08.198Z,23.96
2018-10-19T00:38:36.187Z,23.95
2018-10-19T00:41:04.578Z,23.95
2018-10-19T00:43:32.311Z,23.93
2018-10-19T00:46:00.018Z,23.92
2018-10-19T00:48:28.510Z,23.92
2018-10-19T00:50:56.243Z,23.94
2018-10-19T00:53:23.934Z,23.93
2018-10-19T00:55:51.954Z,23.92
2018-10-19T00:58:19.690Z,23.91
2018-10-19T01:00:47.578Z,23.93
2018-10-19T01:03:15.508Z,23.93
2018-10-19T01:05:43.210Z,23.93
2018-10-19T01:08:10.757Z,23.88
2018-10-19T01:10:38.834Z,23.87
2018-10-19T01:13:06.670Z,23.86
2018-10-19T01:15:34.578Z,23.85
2018-10-19T01:18:02.966Z,23.88
2018-10-19T01:20:30.842Z,23.78
2018-10-19T01:22:58.312Z,23.87
2018-10-19T01:25:26.038Z,23.88
2018-10-19T01:27:53.899Z,23.87
2018-10-19T01:30:21.726Z,23.85
2018-10-19T01:32:49.609Z,23.88
2018-10-19T01:35:17.483Z,23.82
2018-10-19T01:37:44.709Z,23.81
2018-10-19T01:40:13.277Z,23.85
2018-10-19T01:43:12.698Z,23.84
2018-10-19T01:45:46.597Z,23.86
2018-10-19T01:48:14.679Z,23.87
2018-10-19T01:50:42.518Z,23.89
2018-10-19T01:53:10.361Z,23.85
2018-10-19T01:55:38.216Z,23.76
2018-10-19T01:58:05.910Z,23.82
2018-10-19T02:00:33.726Z,23.83
2018-10-19T02:03:01.537Z,23.79
2018-10-19T02:05:29.210Z,23.77
2018-10-19T02:07:57.038Z,23.79
2018-10-19T02:10:24.902Z,23.79
2018-10-19T02:12:52.726Z,23.77
2018-10-19T02:15:20.578Z,23.77
2018-10-19T02:17:48.483Z,23.75
2018-10-19T02:20:15.814Z,23.76
2018-10-19T02:22:43.777Z,23.76
2018-10-19T02:25:12.860Z,23.82
2018-10-19T02:27:42.185Z,23.78
2018-10-19T02:30:10.886Z,23.76
2018-10-19T02:32:40.200Z,23.76
2018-10-19T02:35:08.832Z,23.74
2018-10-19T02:37:38.742Z,23.72
2018-10-19T02:40:08.854Z,23.71
2018-10-19T02:42:38.822Z,23.72
2018-10-19T02:45:09.659Z,23.74
2018-10-19T02:47:38.926Z,23.68
2018-10-19T02:50:08.845Z,23.70
2018-10-19T02:52:38.858Z,23.71
2018-10-19T02:55:08.903Z,23.72
2018-10-19T02:57:38.793Z,23.68
2018-10-19T03:00:10.009Z,23.69
2018-10-19T03:02:38.789Z,23.64
2018-10-19T03:05:08.902Z,23.69
2018-10-19T03:07:37.777Z,23.66
2018-10-19T03:10:07.840Z,23.64
2018-10-19T03:12:36.981Z,23.68
2018-10-19T03:15:07.880Z,23.66
2018-10-19T03:17:37.834Z,23.66
2018-10-19T03:20:07.975Z,23.69
2018-10-19T03:22:37.841Z,23.66
2018-10-19T03:25:07.846Z,23.65
2018-10-19T03:27:37.819Z,23.63
2018-10-19T03:30:07.862Z,23.62
2018-10-19T03:32:36.976Z,23.62
2018-10-19T03:35:07.921Z,23.63
2018-10-19T03:37:36.958Z,23.62
2018-10-19T03:41:42.985Z,23.63
2018-10-19T03:44:10.719Z,23.62
2018-10-19T03:46:38.633Z,23.59
2018-10-19T03:49:06.672Z,23.60
2018-10-19T03:51:34.493Z,23.57
2018-10-19T03:54:02.333Z,23.59
2018-10-19T03:56:30.064Z,23.54
2018-10-19T03:58:58.053Z,23.57
2018-10-19T04:01:25.753Z,23.55
2018-10-19T04:03:53.593Z,23.56
2018-10-19T04:06:20.961Z,23.57
2018-10-19T04:08:48.860Z,23.31
2018-10-19T04:11:16.844Z,23.56
2018-10-19T04:13:44.642Z,23.57
2018-10-19T04:16:12.540Z,23.55
2018-10-19T04:18:40.489Z,23.59
2018-10-19T04:21:08.268Z,23.57
2018-10-19T04:23:36.026Z,23.54
2018-10-19T04:26:04.212Z,23.52
2018-10-19T04:28:32.379Z,23.57
2018-10-19T04:31:00.215Z,23.53
2018-10-19T04:33:27.979Z,23.56
2018-10-19T04:35:55.974Z,23.57
2018-10-19T04:38:23.960Z,23.52
2018-10-19T04:40:51.992Z,23.57
2018-10-19T04:43:19.821Z,23.56
2018-10-19T04:45:47.722Z,23.53
2018-10-19T04:48:15.764Z,23.54
2018-10-19T04:50:43.710Z,23.54
2018-10-19T04:53:21.638Z,23.56
2018-10-19T04:55:49.588Z,23.56
2018-10-19T04:58:17.515Z,23.46
2018-10-19T05:00:45.567Z,23.55
2018-10-19T05:03:13.557Z,23.57
2018-10-19T05:06:48.898Z,23.55
2018-10-19T05:09:16.875Z,23.54
2018-10-19T05:11:44.706Z,23.55
2018-10-19T05:14:12.678Z,23.60
2018-10-19T05:16:40.594Z,23.57
2018-10-19T05:19:08.678Z,23.69
2018-10-19T05:21:37.214Z,23.61
2018-10-19T05:24:05.170Z,23.58
2018-10-19T05:26:33.590Z,23.54
2018-10-19T05:29:01.061Z,23.57
2018-10-19T05:31:28.895Z,23.59
2018-10-19T05:33:57.392Z,23.54
2018-10-19T05:36:25.694Z,23.68
2018-10-19T05:38:53.603Z,23.64
2018-10-19T05:41:21.567Z,23.56
2018-10-19T05:43:49.550Z,23.64
2018-10-19T05:46:17.470Z,23.61
2018-10-19T05:48:45.795Z,23.57
2018-10-19T05:51:13.721Z,23.52
2018-10-19T05:53:41.594Z,23.48
2018-10-19T05:56:09.596Z,23.52
2018-10-19T05:58:37.385Z,23.50
2018-10-19T06:01:08.993Z,23.51
2018-10-19T06:03:36.806Z,23.54
2018-10-19T06:06:04.674Z,23.53
2018-10-19T06:08:31.854Z,23.54
2018-10-19T06:12:26.475Z,23.47
2018-10-19T06:14:54.342Z,23.48
2018-10-19T06:17:22.312Z,23.48
2018-10-19T06:19:50.032Z,23.51
2018-10-19T06:22:17.983Z,23.48
2018-10-19T06:24:45.306Z,23.41
2018-10-19T06:27:13.712Z,23.48
2018-10-19T06:29:41.592Z,23.48
2018-10-19T06:32:09.544Z,23.46
2018-10-19T06:34:37.310Z,23.47
2018-10-19T06:37:05.075Z,23.44
2018-10-19T06:39:33.075Z,23.44
2018-10-19T06:42:00.998Z,23.45
2018-10-19T06:44:28.319Z,23.48
2018-10-19T06:46:56.209Z,23.48
2018-10-19T06:49:24.166Z,23.47
2018-10-19T06:51:52.327Z,23.46
2018-10-19T06:56:27.679Z,23.48
2018-10-19T06:58:55.610Z,23.49
2018-10-19T07:01:23.496Z,23.48
2018-10-19T07:03:51.478Z,23.51
2018-10-19T07:06:19.364Z,23.52
2018-10-19T07:08:47.124Z,23.53
2018-10-19T07:11:15.009Z,23.57
2018-10-19T07:13:42.682Z,23.57
2018-10-19T07:16:10.468Z,23.59
2018-10-19T07:18:38.309Z,23.58
2018-10-19T07:21:06.059Z,23.54
2018-10-19T07:23:33.592Z,23.60
2018-10-19T07:26:01.632Z,23.60
2018-10-19T07:28:29.485Z,23.59
2018-10-19T07:30:57.231Z,23.61
2018-10-19T07:33:25.039Z,23.64
2018-10-19T07:35:52.493Z,23.64
2018-10-19T07:38:20.228Z,23.66
2018-10-19T07:40:47.969Z,23.70
2018-10-19T07:43:15.214Z,23.70
2018-10-19T07:45:43.006Z,23.75
2018-10-19T07:48:13.091Z,23.76
2018-10-19T07:50:42.997Z,23.70
2018-10-19T07:53:13.066Z,23.79
2018-10-19T07:56:17.738Z,23.80
2018-10-19T07:58:45.390Z,23.82
2018-10-19T08:01:13.297Z,23.80
2018-10-19T08:03:40.785Z,23.85
2018-10-19T08:06:10.014Z,23.89
2018-10-19T08:08:37.868Z,23.91
2018-10-19T08:11:06.083Z,23.89
2018-10-19T08:13:33.917Z,23.92
2018-10-19T08:16:01.831Z,23.92
2018-10-19T08:18:29.698Z,23.94
2018-10-19T08:20:57.650Z,23.94
2018-10-19T08:23:25.484Z,23.94
2018-10-19T08:25:53.372Z,23.95
2018-10-19T08:28:20.594Z,23.96
2018-10-19T08:30:48.517Z,23.92
2018-10-19T08:33:16.223Z,23.94
2018-10-19T08:35:44.049Z,23.93
2018-10-19T08:38:11.990Z,23.96
2018-10-19T08:40:39.317Z,23.98
2018-10-19T08:43:07.097Z,23.94
2018-10-19T08:45:35.022Z,23.98
2018-10-19T08:48:02.447Z,23.96
2018-10-19T08:50:30.523Z,23.99
2018-10-19T08:52:58.523Z,23.99
2018-10-19T08:55:26.227Z,23.96
2018-10-19T08:57:54.293Z,24.05
2018-10-19T09:00:22.075Z,24.05
2018-10-19T09:06:00.497Z,24.03
2018-10-19T09:08:28.229Z,24.02
2018-10-19T09:10:58.024Z,24.04
2018-10-19T09:13:28.043Z,24.06
2018-10-19T09:18:34.905Z,24.07
2018-10-19T09:21:02.973Z,24.07
2018-10-19T09:23:30.694Z,24.09
2018-10-19T09:25:58.329Z,24.09
2018-10-19T09:28:26.458Z,24.09
2018-10-19T09:30:54.374Z,24.11
2018-10-19T09:33:22.231Z,24.11
2018-10-19T09:35:50.076Z,24.09
2018-10-19T09:38:18.381Z,24.09
2018-10-19T09:40:46.341Z,24.11
2018-10-19T09:43:15.490Z,24.11
2018-10-19T09:45:43.317Z,24.11
2018-10-19T09:48:11.056Z,24.12
2018-10-19T09:50:38.949Z,24.11
2018-10-19T09:53:10.809Z,24.14
2018-10-19T09:55:38.762Z,24.15
2018-10-19T09:58:06.626Z,24.13
2018-10-19T10:00:40.611Z,24.15
2018-10-19T10:03:08.650Z,24.15
2018-10-19T10:05:36.009Z,24.17
2018-10-19T10:08:04.172Z,24.18
2018-10-19T10:10:35.211Z,24.19
2018-10-19T10:13:03.040Z,24.19
2018-10-19T10:15:31.061Z,24.19
2018-10-19T10:17:58.886Z,24.22
2018-10-19T10:20:26.723Z,24.20
2018-10-19T10:22:54.611Z,24.20
2018-10-19T10:25:23.182Z,24.22
2018-10-19T10:27:50.887Z,24.23
2018-10-19T10:30:20.913Z,24.21
2018-10-19T10:32:49.994Z,24.27
2018-10-19T10:35:19.967Z,24.18
2018-10-19T10:37:49.974Z,24.05
2018-10-19T10:40:20.024Z,23.94
2018-10-19T10:42:49.990Z,24.00
2018-10-19T10:45:19.945Z,23.97
2018-10-19T10:47:53.953Z,23.93
2018-10-19T10:50:23.890Z,23.91
2018-10-19T10:52:53.971Z,23.81
2018-10-19T10:55:23.971Z,22.95
2018-10-19T10:57:54.008Z,22.99
2018-10-19T11:00:23.962Z,22.45
2018-10-19T11:02:53.982Z,22.30
2018-10-19T11:05:23.938Z,22.29
2018-10-19T11:07:53.986Z,22.20
2018-10-19T11:10:23.997Z,22.19
2018-10-19T11:12:53.985Z,22.49
2018-10-19T11:15:23.970Z,22.25
2018-10-19T11:17:53.952Z,22.44
2018-10-19T11:20:23.975Z,22.73
2018-10-19T11:22:53.995Z,22.99
2018-10-19T11:25:24.000Z,22.99
2018-10-19T11:27:54.011Z,23.11
2018-10-19T11:30:23.971Z,23.13
2018-10-19T11:32:54.002Z,23.13
2018-10-19T11:35:23.978Z,23.15
2018-10-19T11:40:37.620Z,23.28
2018-10-19T11:43:05.889Z,23.22
2018-10-19T11:45:34.013Z,23.27
2018-10-19T11:48:01.914Z,23.26
2018-10-19T11:50:29.899Z,23.38
2018-10-19T11:52:57.999Z,23.40
2018-10-19T11:55:25.985Z,23.39
2018-10-19T11:57:53.987Z,23.43
2018-10-19T12:00:21.838Z,23.43
2018-10-19T12:02:49.915Z,23.48
2018-10-19T12:05:17.782Z,23.43
2018-10-19T12:07:45.889Z,23.47
2018-10-19T12:10:14.157Z,23.46
2018-10-19T12:12:41.854Z,23.56
2018-10-19T12:15:11.567Z,23.65
2018-10-19T12:17:40.016Z,23.56
2018-10-19T12:20:09.192Z,23.55
2018-10-19T12:22:37.022Z,23.52
2018-10-19T12:25:06.767Z,23.63
2018-10-19T12:27:36.959Z,23.63
2018-10-19T12:30:06.958Z,23.58
2018-10-19T12:32:36.949Z,23.53
2018-10-19T12:35:07.927Z,23.60
2018-10-19T12:37:36.970Z,23.61
2018-10-19T12:40:07.927Z,23.57
2018-10-19T12:42:37.981Z,23.58
2018-10-19T12:45:20.841Z,23.48
2018-10-19T12:49:06.976Z,23.62
2018-10-19T12:51:37.009Z,23.58
2018-10-19T12:54:07.135Z,23.62
2018-10-19T12:56:36.971Z,23.61
2018-10-19T12:59:06.961Z,23.59
2018-10-19T13:01:36.973Z,23.53
2018-10-19T13:04:07.867Z,23.59
2018-10-19T13:06:37.877Z,23.59
2018-10-19T13:09:11.004Z,23.57
2018-10-19T13:11:40.922Z,23.61
2018-10-19T13:14:10.926Z,23.62
2018-10-19T13:17:23.298Z,23.59
2018-10-19T13:19:51.180Z,23.55
2018-10-19T13:22:18.763Z,23.58
2018-10-19T13:24:46.763Z,23.62
2018-10-19T13:27:15.079Z,23.61
2018-10-19T13:29:42.946Z,23.60
2018-10-19T13:32:10.220Z,23.59
2018-10-19T13:34:38.588Z,23.57
2018-10-19T13:37:06.574Z,23.57
2018-10-19T13:39:33.814Z,23.57
2018-10-19T13:42:01.629Z,23.55
2018-10-19T13:44:29.446Z,23.53
2018-10-19T13:46:57.187Z,23.52
2018-10-19T13:49:25.330Z,23.48
2018-10-19T13:51:53.322Z,23.51
2018-10-19T13:54:21.257Z,23.52
2018-10-19T13:56:48.966Z,23.45
2018-10-19T13:59:16.851Z,23.51
2018-10-19T14:01:44.586Z,23.48
2018-10-19T14:04:12.410Z,23.44
2018-10-19T14:07:31.846Z,23.47
2018-10-19T14:10:00.847Z,23.49
2018-10-19T14:12:30.754Z,23.40
2018-10-19T14:15:00.854Z,23.41
2018-10-19T14:17:29.878Z,23.46
2018-10-19T14:19:58.909Z,23.48
2018-10-19T14:22:27.945Z,23.34
2018-10-19T14:24:57.970Z,23.47
2018-10-19T14:27:27.754Z,23.47
2018-10-19T14:29:57.164Z,23.44
2018-10-19T14:32:26.746Z,23.50
2018-10-19T14:37:29.478Z,23.51
2018-10-19T14:39:57.211Z,23.53
2018-10-19T14:42:28.704Z,23.50
2018-10-19T14:44:56.618Z,23.54
2018-10-19T14:47:24.663Z,23.54
2018-10-19T14:49:52.402Z,23.55
2018-10-19T14:52:20.173Z,23.54
2018-10-19T14:54:47.897Z,23.53
2018-10-19T14:57:15.791Z,23.52
2018-10-19T14:59:44.007Z,23.53
2018-10-19T15:02:12.790Z,23.43
2018-10-19T15:04:41.998Z,23.49
2018-10-19T15:07:11.853Z,23.48
2018-10-19T15:09:40.992Z,23.47
2018-10-19T15:12:10.935Z,23.47
2018-10-19T15:14:40.903Z,23.34
2018-10-19T15:17:10.669Z,23.36
2018-10-19T15:19:39.834Z,23.44
2018-10-19T15:22:10.183Z,23.50
2018-10-19T15:24:38.957Z,23.48
2018-10-19T15:27:08.664Z,23.44
2018-10-19T15:29:38.009Z,23.47
2018-10-19T15:32:06.875Z,23.48
2018-10-19T15:34:36.221Z,23.44
2018-10-19T15:37:05.040Z,23.40
2018-10-19T15:39:33.950Z,23.40
2018-10-19T15:42:03.708Z,23.38
2018-10-19T15:44:32.914Z,23.36
2018-10-19T15:47:03.590Z,23.34
2018-10-19T15:49:32.827Z,23.33
2018-10-19T15:52:02.182Z,23.36
2018-10-19T15:54:30.836Z,23.32
2018-10-19T15:57:00.865Z,23.23
2018-10-19T15:59:30.200Z,23.30
2018-10-19T16:01:58.863Z,23.19
2018-10-19T16:04:28.194Z,23.27
2018-10-19T16:06:56.798Z,23.26
2018-10-19T16:09:25.954Z,23.23
2018-10-19T16:11:55.858Z,23.21
2018-10-19T16:14:25.748Z,23.20
2018-10-19T16:16:54.914Z,23.18
2018-10-19T16:19:24.630Z,23.15
2018-10-19T16:21:53.950Z,23.13
2018-10-19T16:24:23.618Z,23.06
2018-10-19T16:26:52.828Z,23.11
2018-10-19T16:29:22.067Z,23.11
2018-10-19T16:31:51.610Z,23.08
2018-10-19T16:34:19.841Z,23.07
2018-10-19T16:36:49.198Z,23.05
2018-10-19T16:39:18.619Z,23.02
2018-10-19T16:44:16.734Z,22.96
2018-10-19T16:46:46.735Z,22.98
2018-10-19T16:49:15.915Z,22.95
2018-10-19T16:51:45.212Z,22.92
2018-10-19T16:54:14.678Z,22.89
2018-10-19T16:56:43.766Z,22.84
2018-10-19T16:59:12.838Z,22.82
2018-10-19T17:01:41.918Z,22.79
2018-10-19T17:04:11.078Z,22.77
2018-10-19T17:06:40.621Z,22.77
2018-10-19T17:09:12.875Z,22.71
2018-10-19T17:11:42.897Z,22.77
2018-10-19T17:14:12.730Z,22.72
2018-10-19T17:16:42.071Z,22.58
2018-10-19T17:19:11.805Z,22.70
2018-10-19T17:21:40.877Z,22.61
2018-10-19T17:24:09.949Z,22.55
2018-10-19T17:26:39.176Z,22.58
2018-10-19T17:29:08.735Z,22.58
2018-10-19T17:31:36.964Z,22.54
2018-10-19T17:34:06.704Z,22.55
2018-10-19T17:36:35.846Z,22.52
2018-10-19T17:39:07.918Z,22.50
2018-10-19T17:41:36.931Z,22.43
2018-10-19T17:44:06.647Z,22.46
2018-10-19T17:46:35.808Z,22.42
2018-10-19T17:49:05.074Z,22.35
2018-10-19T17:51:34.727Z,22.33
2018-10-19T17:54:04.033Z,22.36
2018-10-19T17:56:33.709Z,22.25
2018-10-19T17:59:02.890Z,22.29
2018-10-19T18:01:32.613Z,22.22
2018-10-19T18:04:01.831Z,22.22
2018-10-19T18:06:31.075Z,22.15
2018-10-19T18:09:00.841Z,22.23
2018-10-19T18:11:30.253Z,22.19
2018-10-19T18:13:58.952Z,22.20
2018-10-19T18:16:28.750Z,22.16
2018-10-19T18:18:57.895Z,22.15
2018-10-19T18:21:27.737Z,22.14
2018-10-19T18:23:57.190Z,22.09
2018-10-19T18:26:25.791Z,22.12
2018-10-19T18:28:54.943Z,22.03
2018-10-19T18:31:24.209Z,22.05
2018-10-19T18:33:53.801Z,22.02
2018-10-19T18:36:22.828Z,21.99
2018-10-19T18:38:51.971Z,21.96
2018-10-19T18:41:21.802Z,21.91
2018-10-19T18:43:49.957Z,21.90
2018-10-19T18:46:19.606Z,21.91
2018-10-19T18:48:47.821Z,21.88
2018-10-19T18:51:16.931Z,21.88
2018-10-19T18:53:46.683Z,21.83
2018-10-19T18:56:16.055Z,21.82
2018-10-19T18:58:45.880Z,21.83
2018-10-19T19:01:15.920Z,21.81
2018-10-19T19:03:45.633Z,21.78
2018-10-19T19:06:14.811Z,21.71
2018-10-19T19:08:43.954Z,21.73
2018-10-19T19:11:13.114Z,21.71
2018-10-19T19:13:45.819Z,21.67
2018-10-19T19:16:20.914Z,21.65
2018-10-19T19:18:50.806Z,21.64
2018-10-19T19:21:20.645Z,21.60
2018-10-19T19:23:55.002Z,21.59
2018-10-19T19:26:24.834Z,21.57
2018-10-19T19:28:54.850Z,21.59
2018-10-19T19:31:24.171Z,21.63
2018-10-19T19:33:57.978Z,21.50
2018-10-19T19:36:27.619Z,21.53
2018-10-19T19:38:57.849Z,21.53
2018-10-19T19:41:33.222Z,21.56
2018-10-19T19:44:01.865Z,21.61
2018-10-19T19:46:31.181Z,21.62
2018-10-19T19:49:05.063Z,21.64
2018-10-19T19:51:34.909Z,21.66
2018-10-19T19:54:04.798Z,21.63
2018-10-19T19:56:34.793Z,21.67
2018-10-19T19:59:04.211Z,21.67
2018-10-19T20:01:32.809Z,21.66
2018-10-19T20:04:02.173Z,21.64
2018-10-19T20:06:30.825Z,21.62
2018-10-19T20:09:00.066Z,21.60
2018-10-19T20:11:29.787Z,21.60
2018-10-19T20:13:59.182Z,21.59
2018-10-19T20:16:28.812Z,21.82
2018-10-19T20:18:58.790Z,21.81
2018-10-19T20:21:28.192Z,21.93
2018-10-19T20:23:57.840Z,22.13
2018-10-19T20:26:27.984Z,22.16
2018-10-19T20:28:56.889Z,22.16
2018-10-19T20:31:29.198Z,22.30
2018-10-19T20:33:58.825Z,22.40
2018-10-19T20:36:28.858Z,22.36
2018-10-19T20:38:58.765Z,22.34
2018-10-19T20:41:28.830Z,22.32
2018-10-19T20:43:58.228Z,22.39
2018-10-19T20:46:26.843Z,22.41
2018-10-19T20:48:56.587Z,22.49
2018-10-19T20:51:25.847Z,22.52
2018-10-19T20:53:55.762Z,22.50
2018-10-19T20:58:05.461Z,22.52
2018-10-19T21:00:33.334Z,22.52
2018-10-19T21:03:01.046Z,22.55
2018-10-19T21:05:28.914Z,22.55
2018-10-19T21:07:56.809Z,22.57
2018-10-19T21:10:24.586Z,22.58
2018-10-19T21:12:52.540Z,22.60
2018-10-19T21:15:20.481Z,22.70
2018-10-19T21:17:48.454Z,22.66
2018-10-19T21:20:16.370Z,22.64
2018-10-19T21:27:38.862Z,22.68
2018-10-19T21:30:08.933Z,22.65
2018-10-19T21:32:38.842Z,22.65
2018-10-19T21:35:08.877Z,22.69
2018-10-19T21:37:38.777Z,22.71
2018-10-19T21:40:08.835Z,22.70
2018-10-19T21:42:38.630Z,22.70
2018-10-19T21:45:08.844Z,22.72
2018-10-19T21:47:38.638Z,22.73
2018-10-19T21:50:09.046Z,22.74
2018-10-19T21:52:38.619Z,22.76
2018-10-19T21:55:09.843Z,22.76
2018-10-19T21:57:39.843Z,22.76
2018-10-19T22:00:09.938Z,22.76
2018-10-19T22:02:39.758Z,22.72
2018-10-19T22:05:10.959Z,22.78
2018-10-19T22:07:40.994Z,22.81
2018-10-19T22:11:34.795Z,22.81
2018-10-19T22:14:03.951Z,22.80
2018-10-19T22:16:33.830Z,22.81
2018-10-19T22:19:03.575Z,22.81
2018-10-19T22:21:32.891Z,22.83
2018-10-19T22:25:22.858Z,22.73
2018-10-19T22:27:51.845Z,22.85
2018-10-19T22:30:21.771Z,22.79
2018-10-19T22:32:51.896Z,22.85
2018-10-19T22:35:21.786Z,22.75
2018-10-19T22:37:51.783Z,22.85
2018-10-19T22:40:20.978Z,22.86
2018-10-19T22:42:49.785Z,22.86
2018-10-19T22:45:18.966Z,22.87
2018-10-19T22:47:47.793Z,22.88
2018-10-19T22:50:16.950Z,22.87
2018-10-19T22:52:46.853Z,22.88
2018-10-19T22:55:16.954Z,22.88
2018-10-19T22:57:45.874Z,22.89
2018-10-19T23:00:14.881Z,22.91
2018-10-19T23:02:43.926Z,22.91
2018-10-19T23:05:13.676Z,22.89
2018-10-19T23:07:42.809Z,22.92
2018-10-19T23:10:11.962Z,22.92
2018-10-19T23:12:41.736Z,22.92
2018-10-19T23:15:10.878Z,22.87
2018-10-19T23:17:40.774Z,22.94
2018-10-19T23:20:09.962Z,22.92
2018-10-19T23:22:39.809Z,22.95
2018-10-19T23:25:09.848Z,22.93
2018-10-19T23:27:39.626Z,22.94
2018-10-19T23:31:40.923Z,22.95
2018-10-19T23:34:08.714Z,22.92
2018-10-19T23:36:37.007Z,22.93
2018-10-19T23:39:07.874Z,22.94
2018-10-19T23:41:35.658Z,22.94
2018-10-19T23:44:03.439Z,22.95
2018-10-19T23:46:31.308Z,22.96
2018-10-19T23:48:59.236Z,22.95
2018-10-19T23:51:26.969Z,22.96
2018-10-19T23:53:55.007Z,22.98
2018-10-19T23:56:22.883Z,22.97
2018-10-19T23:58:50.802Z,22.96
